createdAt,value
2023-02-27T00:00:52.425Z,-2.94
2023-02-27T00:03:19.228Z,-2.97
2023-02-27T00:05:45.929Z,-2.98
2023-02-27T00:08:12.674Z,-2.94
2023-02-27T00:10:39.450Z,-2.94
2023-02-27T00:13:06.303Z,-2.93
2023-02-27T00:15:33.653Z,-2.93
2023-02-27T00:18:02.834Z,-2.94
2023-02-27T00:20:29.859Z,-2.97
2023-02-27T00:22:56.644Z,-2.97
2023-02-27T00:25:23.374Z,-2.95
2023-02-27T00:27:50.111Z,-2.94
2023-02-27T00:30:17.003Z,-2.94
2023-02-27T00:32:44.061Z,-2.94
2023-02-27T00:35:11.986Z,-2.94
2023-02-27T00:37:39.687Z,-2.93
2023-02-27T00:40:07.726Z,-2.93
2023-02-27T00:42:34.791Z,-2.91
2023-02-27T00:45:01.526Z,-2.95
2023-02-27T00:47:28.366Z,-3.03
2023-02-27T00:49:55.071Z,-3.10
2023-02-27T00:52:21.891Z,-3.21
2023-02-27T00:54:48.567Z,-3.28
2023-02-27T00:57:15.479Z,-3.38
2023-02-27T00:59:42.661Z,-3.46
2023-02-27T01:02:09.422Z,-3.52
2023-02-27T01:04:36.561Z,-3.53
2023-02-27T01:07:03.681Z,-3.52
2023-02-27T01:09:30.460Z,-3.52
2023-02-27T01:11:57.525Z,-3.53
2023-02-27T01:14:24.030Z,-3.53
2023-02-27T01:16:50.527Z,-3.53
2023-02-27T01:19:17.114Z,-3.53
2023-02-27T01:21:43.953Z,-3.51
2023-02-27T01:24:11.272Z,-3.50
2023-02-27T01:26:37.807Z,-3.49
2023-02-27T01:29:06.483Z,-3.48
2023-02-27T01:31:33.626Z,-3.46
2023-02-27T01:34:00.235Z,-3.44
2023-02-27T01:36:26.752Z,-3.45
2023-02-27T01:38:53.308Z,-3.48
2023-02-27T01:41:19.787Z,-3.55
2023-02-27T01:44:00.026Z,-3.59
2023-02-27T01:46:28.079Z,-3.65
2023-02-27T01:48:59.572Z,-3.69
2023-02-27T01:51:30.134Z,-3.76
2023-02-27T01:53:57.592Z,-3.83
2023-02-27T01:56:28.770Z,-3.85
2023-02-27T01:59:01.070Z,-3.86
2023-02-27T02:01:29.346Z,-3.84
2023-02-27T02:04:04.957Z,-3.81
2023-02-27T02:06:34.616Z,-3.79
2023-02-27T02:09:01.851Z,-3.76
2023-02-27T02:11:28.966Z,-3.74
2023-02-27T02:14:02.544Z,-3.72
2023-02-27T02:16:54.833Z,-3.72
2023-02-27T02:19:53.166Z,-3.72
2023-02-27T02:26:29.278Z,-3.69
2023-02-27T02:29:04.946Z,-3.76
2023-02-27T02:31:47.162Z,-3.86
2023-02-27T02:34:36.934Z,-3.94
2023-02-27T02:37:44.613Z,-4.01
2023-02-27T02:40:48.283Z,-4.08
2023-02-27T02:43:34.760Z,-4.13
2023-02-27T02:46:22.012Z,-4.17
2023-02-27T02:49:03.926Z,-4.18
2023-02-27T02:51:53.324Z,-4.19
2023-02-27T02:54:42.401Z,-4.14
2023-02-27T02:57:19.429Z,-4.11
2023-02-27T03:00:02.511Z,-4.11
2023-02-27T03:02:34.916Z,-4.15
2023-02-27T03:05:05.019Z,-4.22
2023-02-27T03:07:47.780Z,-4.29
2023-02-27T03:10:35.324Z,-4.37
2023-02-27T03:13:12.058Z,-4.42
2023-02-27T03:15:49.822Z,-4.45
2023-02-27T03:18:21.113Z,-4.48
2023-02-27T03:21:10.460Z,-4.57
2023-02-27T03:23:43.889Z,-4.55
2023-02-27T03:26:14.011Z,-4.61
2023-02-27T03:29:06.334Z,-4.65
2023-02-27T03:31:47.519Z,-4.67
2023-02-27T03:34:24.190Z,-4.68
2023-02-27T03:37:17.276Z,-4.70
2023-02-27T03:39:51.603Z,-4.75
2023-02-27T03:42:33.021Z,-4.76
2023-02-27T03:45:15.105Z,-4.78
2023-02-27T03:47:41.836Z,-4.74
2023-02-27T03:50:09.101Z,-4.74
2023-02-27T03:52:35.773Z,-4.78
2023-02-27T03:55:11.437Z,-4.68
2023-02-27T03:57:38.338Z,-4.71
2023-02-27T04:00:07.012Z,-4.65
2023-02-27T04:02:34.571Z,-4.68
2023-02-27T04:05:01.098Z,-4.69
2023-02-27T04:07:46.415Z,-4.70
2023-02-27T04:10:24.550Z,-4.73
2023-02-27T04:13:21.599Z,-4.76
2023-02-27T04:16:25.712Z,-4.78
2023-02-27T04:19:10.871Z,-4.78
2023-02-27T04:21:56.343Z,-4.75
2023-02-27T04:24:52.474Z,-4.73
2023-02-27T04:27:55.451Z,-4.74
2023-02-27T04:30:37.603Z,-4.81
2023-02-27T04:33:42.843Z,-4.89
2023-02-27T04:36:19.438Z,-4.92
2023-02-27T04:39:00.913Z,-4.92
2023-02-27T04:41:46.511Z,-4.90
2023-02-27T04:44:15.913Z,-4.90
2023-02-27T04:46:45.122Z,-4.88
2023-02-27T04:49:29.065Z,-4.90
2023-02-27T04:52:12.745Z,-4.94
2023-02-27T04:54:52.589Z,-5.02
2023-02-27T04:57:25.334Z,-5.09
2023-02-27T04:59:55.869Z,-5.08
2023-02-27T05:02:28.110Z,-5.06
2023-02-27T05:04:59.129Z,-5.01
2023-02-27T05:07:31.298Z,-4.98
2023-02-27T05:10:14.859Z,-4.95
2023-02-27T05:12:48.237Z,-4.93
2023-02-27T05:15:24.009Z,-4.94
2023-02-27T05:18:05.171Z,-5.02
2023-02-27T05:20:41.792Z,-5.09
2023-02-27T05:23:20.841Z,-5.15
2023-02-27T05:25:59.245Z,-5.15
2023-02-27T05:28:39.819Z,-5.12
2023-02-27T05:31:15.772Z,-5.16
2023-02-27T05:34:00.944Z,-5.23
2023-02-27T05:36:38.160Z,-5.27
2023-02-27T05:39:09.009Z,-5.27
2023-02-27T05:41:50.593Z,-5.25
2023-02-27T05:44:21.269Z,-5.25
2023-02-27T05:46:56.053Z,-5.26
2023-02-27T05:49:33.591Z,-5.31
2023-02-27T05:52:04.492Z,-5.40
2023-02-27T05:54:34.317Z,-5.47
2023-02-27T05:57:04.404Z,-5.50
2023-02-27T06:00:06.343Z,-5.48
2023-02-27T06:02:33.277Z,-5.45
2023-02-27T06:05:00.028Z,-5.40
2023-02-27T06:07:26.713Z,-5.34
2023-02-27T06:09:53.594Z,-5.30
2023-02-27T06:12:20.327Z,-5.29
2023-02-27T06:14:47.046Z,-5.31
2023-02-27T06:17:13.877Z,-5.34
2023-02-27T06:19:40.572Z,-5.36
2023-02-27T06:22:07.224Z,-5.35
2023-02-27T06:24:33.896Z,-5.33
2023-02-27T06:27:00.542Z,-5.37
2023-02-27T06:29:27.381Z,-5.42
2023-02-27T06:31:54.150Z,-5.46
2023-02-27T06:34:20.880Z,-5.41
2023-02-27T06:36:48.564Z,-5.38
2023-02-27T06:39:15.549Z,-5.33
2023-02-27T06:41:42.239Z,-5.28
2023-02-27T06:44:08.937Z,-5.25
2023-02-27T06:46:35.616Z,-5.23
2023-02-27T06:49:02.313Z,-5.22
2023-02-27T06:51:28.972Z,-5.21
2023-02-27T06:53:55.674Z,-5.17
2023-02-27T06:56:22.363Z,-5.12
2023-02-27T06:58:49.148Z,-5.08
2023-02-27T07:01:16.114Z,-5.01
2023-02-27T07:03:42.805Z,-4.97
2023-02-27T07:06:10.849Z,-4.90
2023-02-27T07:08:37.617Z,-4.86
2023-02-27T07:11:24.262Z,-4.83
2023-02-27T07:13:50.902Z,-4.85
2023-02-27T07:16:17.638Z,-4.84
2023-02-27T07:18:44.362Z,-4.84
2023-02-27T07:21:11.058Z,-4.82
2023-02-27T07:23:38.231Z,-4.78
2023-02-27T07:26:05.431Z,-4.74
2023-02-27T07:28:32.271Z,-4.67
2023-02-27T07:30:59.329Z,-4.60
2023-02-27T07:33:26.223Z,-4.54
2023-02-27T07:35:53.005Z,-4.45
2023-02-27T07:38:22.296Z,-4.36
2023-02-27T07:40:48.985Z,-4.30
2023-02-27T07:43:15.670Z,-4.24
2023-02-27T07:45:42.565Z,-4.17
2023-02-27T07:48:09.213Z,-4.09
2023-02-27T07:50:35.914Z,-4.04
2023-02-27T07:53:02.753Z,-3.99
2023-02-27T07:55:29.414Z,-3.91
2023-02-27T07:57:56.107Z,-3.82
2023-02-27T08:00:22.785Z,-3.70
2023-02-27T08:02:49.510Z,-3.60
2023-02-27T08:05:16.262Z,-3.49
2023-02-27T08:07:43.016Z,-3.43
2023-02-27T08:10:10.493Z,-3.36
2023-02-27T08:12:37.160Z,-3.28
2023-02-27T08:15:04.207Z,-3.25
2023-02-27T08:17:30.993Z,-3.20
2023-02-27T08:19:57.648Z,-3.13
2023-02-27T08:22:24.339Z,-3.08
2023-02-27T08:24:51.009Z,-3.03
2023-02-27T08:27:17.666Z,-2.97
2023-02-27T08:29:45.514Z,-2.88
2023-02-27T08:32:12.204Z,-2.81
2023-02-27T08:34:39.008Z,-2.73
2023-02-27T08:37:05.737Z,-2.66
2023-02-27T08:39:32.465Z,-2.58
2023-02-27T08:41:59.192Z,-2.49
2023-02-27T08:44:25.820Z,-2.26
2023-02-27T08:46:52.541Z,-1.93
2023-02-27T08:49:21.692Z,-1.61
2023-02-27T08:51:48.494Z,-1.33
2023-02-27T08:54:15.119Z,-1.10
2023-02-27T08:56:41.826Z,-0.94
2023-02-27T08:59:08.545Z,-0.77
2023-02-27T09:01:35.500Z,-0.60
2023-02-27T09:04:03.839Z,-0.44
2023-02-27T09:06:31.898Z,-0.26
2023-02-27T09:08:59.176Z,-0.13
2023-02-27T09:11:26.685Z,-0.04
2023-02-27T09:13:54.321Z,0.12
2023-02-27T09:16:22.225Z,0.23
2023-02-27T09:18:49.832Z,0.32
2023-02-27T09:21:17.323Z,0.37
2023-02-27T09:23:43.984Z,0.39
2023-02-27T09:26:10.821Z,0.38
2023-02-27T09:28:39.986Z,0.38
2023-02-27T09:31:07.965Z,0.49
2023-02-27T09:33:37.182Z,0.60
2023-02-27T09:36:05.645Z,0.72
2023-02-27T09:38:34.440Z,0.84
2023-02-27T09:41:01.300Z,0.93
2023-02-27T09:43:43.863Z,0.97
2023-02-27T09:46:17.857Z,1.03
2023-02-27T09:48:51.868Z,1.17
2023-02-27T09:51:19.667Z,1.29
2023-02-27T09:53:49.035Z,1.40
2023-02-27T09:56:22.344Z,1.47
2023-02-27T09:59:05.229Z,1.56
2023-02-27T10:01:47.950Z,1.63
2023-02-27T10:04:36.992Z,1.69
2023-02-27T10:07:39.302Z,1.81
2023-02-27T10:10:19.928Z,1.93
2023-02-27T10:13:09.480Z,2.07
2023-02-27T10:15:46.765Z,2.19
2023-02-27T10:18:27.030Z,2.24
2023-02-27T10:21:02.699Z,2.27
2023-02-27T10:23:49.359Z,2.31
2023-02-27T10:26:20.450Z,2.31
2023-02-27T10:28:47.660Z,2.36
2023-02-27T10:31:21.136Z,2.42
2023-02-27T10:33:48.659Z,2.48
2023-02-27T10:36:32.693Z,2.50
2023-02-27T10:39:04.927Z,2.53
2023-02-27T10:41:31.614Z,2.57
2023-02-27T10:44:00.171Z,2.64
2023-02-27T10:46:32.594Z,2.73
2023-02-27T10:49:01.685Z,2.82
2023-02-27T10:51:31.483Z,2.91
2023-02-27T10:54:14.737Z,2.99
2023-02-27T10:56:45.699Z,3.04
2023-02-27T10:59:23.194Z,3.14
2023-02-27T11:02:00.400Z,3.22
2023-02-27T11:04:40.602Z,3.33
2023-02-27T11:07:11.524Z,3.55
2023-02-27T11:09:38.588Z,3.75
2023-02-27T11:12:32.705Z,3.90
2023-02-27T11:15:01.916Z,4.01
2023-02-27T11:17:32.265Z,4.10
2023-02-27T11:20:01.069Z,4.15
2023-02-27T11:22:30.554Z,4.22
2023-02-27T11:25:22.939Z,4.25
2023-02-27T11:27:51.982Z,4.47
2023-02-27T11:30:27.254Z,4.78
2023-02-27T11:32:57.383Z,5.12
2023-02-27T11:35:31.442Z,5.14
2023-02-27T11:38:04.868Z,5.10
2023-02-27T11:40:40.458Z,5.14
2023-02-27T11:43:35.364Z,5.13
2023-02-27T11:46:28.842Z,5.00
2023-02-27T11:49:22.365Z,4.84
2023-02-27T11:51:52.281Z,4.71
2023-02-27T11:54:34.553Z,4.65
2023-02-27T11:57:07.600Z,4.64
2023-02-27T11:59:49.583Z,4.61
2023-02-27T12:02:31.059Z,4.57
2023-02-27T12:05:07.283Z,4.57
2023-02-27T12:07:57.638Z,4.59
2023-02-27T12:10:31.936Z,4.57
2023-02-27T12:13:01.935Z,4.62
2023-02-27T12:15:44.257Z,4.69
2023-02-27T12:18:10.916Z,4.67
2023-02-27T12:20:54.677Z,4.64
2023-02-27T12:23:35.288Z,4.63
2023-02-27T12:26:08.167Z,4.65
2023-02-27T12:28:50.333Z,4.65
2023-02-27T12:31:32.507Z,4.63
2023-02-27T12:34:23.508Z,4.58
2023-02-27T12:36:52.536Z,4.63
2023-02-27T12:39:23.103Z,4.58
2023-02-27T12:42:09.476Z,4.58
2023-02-27T12:44:45.425Z,4.52
2023-02-27T12:47:30.835Z,4.47
2023-02-27T12:50:06.523Z,4.39
2023-02-27T12:53:08.683Z,4.38
2023-02-27T12:55:44.959Z,4.36
2023-02-27T12:58:24.809Z,4.43
2023-02-27T13:00:59.831Z,4.51
2023-02-27T13:03:39.720Z,4.69
2023-02-27T13:06:24.490Z,4.74
2023-02-27T13:09:02.429Z,4.78
2023-02-27T13:11:53.857Z,4.80
2023-02-27T13:14:56.742Z,4.74
2023-02-27T13:18:01.921Z,4.62
2023-02-27T13:20:35.569Z,4.55
2023-02-27T13:23:19.412Z,4.47
2023-02-27T13:25:51.006Z,4.43
2023-02-27T13:28:23.386Z,4.40
2023-02-27T13:31:06.180Z,4.35
2023-02-27T13:33:48.461Z,4.35
2023-02-27T13:36:23.876Z,4.36
2023-02-27T13:38:55.587Z,4.43
2023-02-27T13:41:25.244Z,4.45
2023-02-27T13:43:53.391Z,4.47
2023-02-27T13:46:28.927Z,4.45
2023-02-27T13:49:04.817Z,4.48
2023-02-27T13:51:43.789Z,4.50
2023-02-27T13:54:13.385Z,4.52
2023-02-27T13:56:49.069Z,4.54
2023-02-27T13:59:25.203Z,4.57
2023-02-27T14:01:56.152Z,4.53
2023-02-27T14:04:26.289Z,4.59
2023-02-27T14:07:09.488Z,4.62
2023-02-27T14:09:41.585Z,4.64
2023-02-27T14:12:42.618Z,4.65
2023-02-27T14:15:23.713Z,4.66
2023-02-27T14:17:59.605Z,4.64
2023-02-27T14:20:39.617Z,4.63
2023-02-27T14:23:22.560Z,4.58
2023-02-27T14:26:16.321Z,4.54
2023-02-27T14:28:56.364Z,4.49
2023-02-27T14:31:28.171Z,4.46
2023-02-27T14:33:59.005Z,4.40
2023-02-27T14:36:28.809Z,4.39
2023-02-27T14:38:59.065Z,4.36
2023-02-27T14:41:38.037Z,4.34
2023-02-27T14:44:05.281Z,4.34
2023-02-27T14:46:38.316Z,4.35
2023-02-27T14:49:19.297Z,4.35
2023-02-27T14:51:46.132Z,4.38
2023-02-27T14:54:22.472Z,4.44
2023-02-27T14:57:04.179Z,4.45
2023-02-27T14:59:34.005Z,4.46
2023-02-27T15:02:04.166Z,4.45
2023-02-27T15:04:33.061Z,4.43
2023-02-27T15:07:00.410Z,4.42
2023-02-27T15:09:37.520Z,4.45
2023-02-27T15:12:05.054Z,4.46
2023-02-27T15:14:38.575Z,4.47
2023-02-27T15:17:23.121Z,4.46
2023-02-27T15:19:55.610Z,4.50
2023-02-27T15:22:38.162Z,4.55
2023-02-27T15:25:07.643Z,4.55
2023-02-27T15:27:37.022Z,4.61
2023-02-27T15:30:04.788Z,4.58
2023-02-27T15:32:37.915Z,4.59
2023-02-27T15:35:14.814Z,4.59
2023-02-27T15:38:03.838Z,4.59
2023-02-27T15:40:33.079Z,4.59
2023-02-27T15:43:01.138Z,4.57
2023-02-27T15:45:31.985Z,4.59
2023-02-27T15:47:59.131Z,4.56
2023-02-27T15:50:31.303Z,4.54
2023-02-27T15:53:11.317Z,4.53
2023-02-27T15:55:40.998Z,4.52
2023-02-27T15:58:19.803Z,4.50
2023-02-27T16:00:46.872Z,4.48
2023-02-27T16:03:22.118Z,4.47
2023-02-27T16:05:52.311Z,4.44
2023-02-27T16:08:21.054Z,4.41
2023-02-27T16:10:48.285Z,4.37
2023-02-27T16:13:54.175Z,4.33
2023-02-27T16:16:31.623Z,4.30
2023-02-27T16:19:00.276Z,4.26
2023-02-27T16:21:31.053Z,4.26
2023-02-27T16:24:18.720Z,4.23
2023-02-27T16:26:51.223Z,4.22
2023-02-27T16:29:20.511Z,4.20
2023-02-27T16:31:53.526Z,4.18
2023-02-27T16:34:45.437Z,4.16
2023-02-27T16:37:20.774Z,4.15
2023-02-27T16:39:49.312Z,4.14
2023-02-27T16:42:15.983Z,4.13
2023-02-27T16:44:42.660Z,4.12
2023-02-27T16:47:09.516Z,4.07
2023-02-27T16:49:36.477Z,4.06
2023-02-27T16:52:03.851Z,4.02
2023-02-27T16:54:48.787Z,3.99
2023-02-27T16:57:17.603Z,3.94
2023-02-27T16:59:44.449Z,3.92
2023-02-27T17:06:13.821Z,3.87
2023-02-27T17:08:44.394Z,3.83
2023-02-27T17:11:11.370Z,3.84
2023-02-27T17:13:38.182Z,3.83
2023-02-27T17:16:06.121Z,3.82
2023-02-27T17:18:33.966Z,3.80
2023-02-27T17:21:02.021Z,3.78
2023-02-27T17:23:28.668Z,3.71
2023-02-27T17:25:55.410Z,3.66
2023-02-27T17:28:22.937Z,3.59
2023-02-27T17:30:50.290Z,3.52
2023-02-27T17:33:17.212Z,3.43
2023-02-27T17:35:43.880Z,3.32
2023-02-27T17:38:10.561Z,3.22
2023-02-27T17:40:39.174Z,3.11
2023-02-27T17:43:06.110Z,2.97
2023-02-27T17:45:32.977Z,2.84
2023-02-27T17:47:59.731Z,2.70
2023-02-27T17:50:26.610Z,2.57
2023-02-27T17:52:53.285Z,2.40
2023-02-27T17:55:19.981Z,2.26
2023-02-27T17:57:46.646Z,2.15
2023-02-27T18:00:15.135Z,2.02
2023-02-27T18:02:44.308Z,1.94
2023-02-27T18:05:11.319Z,1.88
2023-02-27T18:07:38.070Z,1.80
2023-02-27T18:10:06.529Z,1.74
2023-02-27T18:12:33.174Z,1.69
2023-02-27T18:14:59.972Z,1.64
2023-02-27T18:17:26.923Z,1.60
2023-02-27T18:19:54.275Z,1.58
2023-02-27T18:22:22.017Z,1.56
2023-02-27T18:24:51.640Z,1.51
2023-02-27T18:27:18.283Z,1.42
2023-02-27T18:29:44.937Z,1.32
2023-02-27T18:32:12.570Z,1.22
2023-02-27T18:34:40.885Z,1.17
2023-02-27T18:37:07.614Z,1.10
2023-02-27T18:39:34.289Z,1.05
2023-02-27T18:42:00.951Z,0.95
2023-02-27T18:44:27.664Z,0.89
2023-02-27T18:46:54.936Z,0.85
2023-02-27T18:49:21.720Z,0.79
2023-02-27T18:51:48.936Z,0.76
2023-02-27T18:54:15.628Z,0.68
2023-02-27T18:56:42.258Z,0.63
2023-02-27T18:59:08.965Z,0.64
2023-02-27T19:01:38.177Z,0.64
2023-02-27T19:04:06.599Z,0.59
2023-02-27T19:06:35.665Z,0.57
2023-02-27T19:09:06.760Z,0.52
2023-02-27T19:11:33.760Z,0.47
2023-02-27T19:14:01.585Z,0.41
2023-02-27T19:16:28.691Z,0.33
2023-02-27T19:18:59.874Z,0.30
2023-02-27T19:21:28.713Z,0.28
2023-02-27T19:23:55.490Z,0.27
2023-02-27T19:26:24.145Z,0.26
2023-02-27T19:28:53.549Z,0.26
2023-02-27T19:31:22.132Z,0.27
2023-02-27T19:33:49.376Z,0.27
2023-02-27T19:36:18.190Z,0.26
2023-02-27T19:38:44.833Z,0.27
2023-02-27T19:41:14.504Z,0.25
2023-02-27T19:43:41.405Z,0.22
2023-02-27T19:46:14.299Z,0.20
2023-02-27T19:48:41.309Z,0.17
2023-02-27T19:51:10.762Z,0.15
2023-02-27T19:53:39.301Z,0.17
2023-02-27T19:56:15.203Z,0.17
2023-02-27T19:58:42.268Z,0.18
2023-02-27T20:01:09.990Z,0.20
2023-02-27T20:03:37.642Z,0.22
2023-02-27T20:06:09.054Z,0.23
2023-02-27T20:08:35.721Z,0.20
2023-02-27T20:11:04.779Z,0.25
2023-02-27T20:13:31.776Z,0.28
2023-02-27T20:16:01.183Z,0.30
2023-02-27T20:18:29.865Z,0.31
2023-02-27T20:21:11.482Z,0.32
2023-02-27T20:23:40.386Z,0.34
2023-02-27T20:26:25.206Z,0.37
2023-02-27T20:28:53.598Z,0.36
2023-02-27T20:31:23.285Z,0.36
2023-02-27T20:33:50.350Z,0.38
2023-02-27T20:36:17.432Z,0.38
2023-02-27T20:38:44.730Z,0.43
2023-02-27T20:41:14.400Z,0.44
2023-02-27T20:43:43.164Z,0.44
2023-02-27T20:46:13.487Z,0.44
2023-02-27T20:48:40.488Z,0.45
2023-02-27T20:51:24.539Z,0.43
2023-02-27T20:53:53.984Z,0.44
2023-02-27T20:56:22.741Z,0.45
2023-02-27T20:58:49.992Z,0.47
2023-02-27T21:01:18.210Z,0.47
2023-02-27T21:03:46.584Z,0.48
2023-02-27T21:06:15.739Z,0.48
2023-02-27T21:08:45.807Z,0.46
2023-02-27T21:11:18.523Z,0.46
2023-02-27T21:13:48.094Z,0.42
2023-02-27T21:16:16.377Z,0.44
2023-02-27T21:18:44.033Z,0.44
2023-02-27T21:21:16.017Z,0.44
2023-02-27T21:23:43.520Z,0.45
2023-02-27T21:26:15.739Z,0.43
2023-02-27T21:28:47.589Z,0.45
2023-02-27T21:31:15.661Z,0.45
2023-02-27T21:33:43.057Z,0.48
2023-02-27T21:36:10.780Z,0.48
2023-02-27T21:38:38.628Z,0.51
2023-02-27T21:41:11.798Z,0.53
2023-02-27T21:43:40.318Z,0.50
2023-02-27T21:46:09.169Z,0.53
2023-02-27T21:48:36.300Z,0.53
2023-02-27T21:51:03.736Z,0.55
2023-02-27T21:53:30.716Z,0.53
2023-02-27T21:56:05.763Z,0.57
2023-02-27T21:58:33.561Z,0.58
2023-02-27T22:01:00.549Z,0.57
2023-02-27T22:03:34.262Z,0.56
2023-02-27T22:06:02.142Z,0.54
2023-02-27T22:08:28.840Z,0.55
2023-02-27T22:11:00.062Z,0.57
2023-02-27T22:13:27.344Z,0.57
2023-02-27T22:15:54.367Z,0.57
2023-02-27T22:18:21.051Z,0.57
2023-02-27T22:20:47.926Z,0.55
2023-02-27T22:23:14.815Z,0.57
2023-02-27T22:25:41.510Z,0.57
2023-02-27T22:28:08.253Z,0.59
2023-02-27T22:30:34.921Z,0.61
2023-02-27T22:33:01.669Z,0.61
2023-02-27T22:35:28.393Z,0.59
2023-02-27T22:37:55.187Z,0.58
2023-02-27T22:40:21.913Z,0.55
2023-02-27T22:42:48.544Z,0.54
2023-02-27T22:45:15.308Z,0.51
2023-02-27T22:47:42.055Z,0.50
2023-02-27T22:50:09.388Z,0.48
2023-02-27T22:52:36.683Z,0.46
2023-02-27T22:55:03.549Z,0.43
2023-02-27T22:57:30.225Z,0.39
2023-02-27T22:59:56.844Z,0.35
2023-02-27T23:02:23.475Z,0.33
2023-02-27T23:04:50.173Z,0.34
2023-02-27T23:07:16.844Z,0.32
2023-02-27T23:09:43.923Z,0.33
2023-02-27T23:12:10.558Z,0.32
2023-02-27T23:14:37.292Z,0.31
2023-02-27T23:17:03.914Z,0.30
2023-02-27T23:19:32.255Z,0.30
2023-02-27T23:21:58.932Z,0.28
2023-02-27T23:24:25.568Z,0.27
2023-02-27T23:26:53.059Z,0.27
2023-02-27T23:29:20.292Z,0.26
2023-02-27T23:31:47.937Z,0.26
2023-02-27T23:34:14.679Z,0.28
2023-02-27T23:36:41.339Z,0.27
2023-02-27T23:39:08.508Z,0.27
2023-02-27T23:41:35.426Z,0.23
2023-02-27T23:44:02.311Z,0.21
2023-02-27T23:46:30.318Z,0.18
2023-02-27T23:49:01.721Z,0.16
2023-02-27T23:51:30.621Z,0.15
2023-02-27T23:53:58.126Z,0.09
2023-02-27T23:56:27.678Z,0.06
2023-02-27T23:59:03.445Z,-0.02
